sensor_id;sensor_type;location;lat;lon;timestamp;temperature;humidity
21801;DHT22;11062;51.164;16.924;2024-01-16T00:35:33;19.20;44.90
21801;DHT22;11062;51.164;16.924;2024-01-16T00:39:21;19.30;44.50
21801;DHT22;11062;51.164;16.924;2024-01-16T00:59:49;20.90;41.40
21801;DHT22;11062;51.164;16.924;2024-01-16T01:26:15;20.70;41.50
21801;DHT22;11062;51.164;16.924;2024-01-16T01:28:43;21.00;41.40
21801;DHT22;11062;51.164;16.924;2024-01-16T01:31:13;21.90;40.60
21801;DHT22;11062;51.164;16.924;2024-01-16T01:33:39;22.60;39.60
21801;DHT22;11062;51.164;16.924;2024-01-16T01:36:05;23.30;38.60
21801;DHT22;11062;51.164;16.924;2024-01-16T01:38:31;23.90;37.70
21801;DHT22;11062;51.164;16.924;2024-01-16T01:41:03;24.20;37.20
21801;DHT22;11062;51.164;16.924;2024-01-16T01:43:37;24.50;36.80
21801;DHT22;11062;51.164;16.924;2024-01-16T01:48:40;24.90;36.20
21801;DHT22;11062;51.164;16.924;2024-01-16T01:51:06;25.10;36.00
21801;DHT22;11062;51.164;16.924;2024-01-16T01:53:36;25.50;35.70
21801;DHT22;11062;51.164;16.924;2024-01-16T01:56:04;25.80;35.20
21801;DHT22;11062;51.164;16.924;2024-01-16T01:58:37;26.00;34.80
21801;DHT22;11062;51.164;16.924;2024-01-16T02:01:05;26.20;34.60
21801;DHT22;11062;51.164;16.924;2024-01-16T02:03:39;26.30;34.30
21801;DHT22;11062;51.164;16.924;2024-01-16T02:06:10;26.40;34.10
21801;DHT22;11062;51.164;16.924;2024-01-16T02:08:41;26.30;34.00
21801;DHT22;11062;51.164;16.924;2024-01-16T02:11:07;26.30;34.10
21801;DHT22;11062;51.164;16.924;2024-01-16T02:13:36;26.30;34.30
21801;DHT22;11062;51.164;16.924;2024-01-16T02:16:02;26.20;34.20
21801;DHT22;11062;51.164;16.924;2024-01-16T02:18:29;26.30;34.30
21801;DHT22;11062;51.164;16.924;2024-01-16T02:21:00;26.20;34.20
21801;DHT22;11062;51.164;16.924;2024-01-16T02:23:29;26.30;34.20
21801;DHT22;11062;51.164;16.924;2024-01-16T02:25:55;26.10;34.30
21801;DHT22;11062;51.164;16.924;2024-01-16T02:28:24;26.10;34.30
21801;DHT22;11062;51.164;16.924;2024-01-16T02:30:54;26.30;34.40
21801;DHT22;11062;51.164;16.924;2024-01-16T02:33:23;26.30;34.10
21801;DHT22;11062;51.164;16.924;2024-01-16T02:35:52;26.40;34.10
21801;DHT22;11062;51.164;16.924;2024-01-16T02:38:18;26.50;34.00
21801;DHT22;11062;51.164;16.924;2024-01-16T02:40:44;26.40;34.10
21801;DHT22;11062;51.164;16.924;2024-01-16T02:43:10;26.40;34.00
21801;DHT22;11062;51.164;16.924;2024-01-16T02:45:36;26.40;34.00
21801;DHT22;11062;51.164;16.924;2024-01-16T02:48:02;26.50;34.10
21801;DHT22;11062;51.164;16.924;2024-01-16T02:50:34;26.50;34.00
21801;DHT22;11062;51.164;16.924;2024-01-16T02:53:00;26.50;34.10
21801;DHT22;11062;51.164;16.924;2024-01-16T02:55:26;26.50;34.10
21801;DHT22;11062;51.164;16.924;2024-01-16T02:57:55;26.60;34.30
21801;DHT22;11062;51.164;16.924;2024-01-16T03:00:21;26.60;34.30
21801;DHT22;11062;51.164;16.924;2024-01-16T03:02:51;26.60;34.30
21801;DHT22;11062;51.164;16.924;2024-01-16T03:05:17;26.50;34.10
21801;DHT22;11062;51.164;16.924;2024-01-16T03:07:43;26.40;34.20
21801;DHT22;11062;51.164;16.924;2024-01-16T03:10:09;26.30;34.40
21801;DHT22;11062;51.164;16.924;2024-01-16T03:12:37;26.30;34.50
21801;DHT22;11062;51.164;16.924;2024-01-16T03:15:09;26.10;34.30
21801;DHT22;11062;51.164;16.924;2024-01-16T03:17:35;26.00;34.70
21801;DHT22;11062;51.164;16.924;2024-01-16T03:20:01;26.00;34.80
21801;DHT22;11062;51.164;16.924;2024-01-16T03:22:30;25.90;34.50
21801;DHT22;11062;51.164;16.924;2024-01-16T03:24:59;25.80;34.20
21801;DHT22;11062;51.164;16.924;2024-01-16T03:27:27;25.60;34.30
21801;DHT22;11062;51.164;16.924;2024-01-16T03:29:53;25.70;34.70
21801;DHT22;11062;51.164;16.924;2024-01-16T03:32:19;25.80;34.50
21801;DHT22;11062;51.164;16.924;2024-01-16T03:34:45;25.50;34.60
21801;DHT22;11062;51.164;16.924;2024-01-16T03:37:14;25.80;34.80
21801;DHT22;11062;51.164;16.924;2024-01-16T03:39:40;25.80;34.60
21801;DHT22;11062;51.164;16.924;2024-01-16T03:42:06;25.90;34.60
21801;DHT22;11062;51.164;16.924;2024-01-16T03:44:39;26.00;34.60
21801;DHT22;11062;51.164;16.924;2024-01-16T03:47:08;26.10;34.40
21801;DHT22;11062;51.164;16.924;2024-01-16T03:49:34;26.10;34.40
21801;DHT22;11062;51.164;16.924;2024-01-16T03:52:00;26.00;34.10
21801;DHT22;11062;51.164;16.924;2024-01-16T03:54:26;25.80;34.30
21801;DHT22;11062;51.164;16.924;2024-01-16T03:56:53;25.50;34.70
21801;DHT22;11062;51.164;16.924;2024-01-16T03:59:19;25.00;35.00
21801;DHT22;11062;51.164;16.924;2024-01-16T04:01:45;24.70;35.40
21801;DHT22;11062;51.164;16.924;2024-01-16T04:04:11;24.40;35.70
21801;DHT22;11062;51.164;16.924;2024-01-16T04:06:37;24.60;35.70
21801;DHT22;11062;51.164;16.924;2024-01-16T04:09:05;25.10;35.00
21801;DHT22;11062;51.164;16.924;2024-01-16T04:11:31;25.60;34.60
21801;DHT22;11062;51.164;16.924;2024-01-16T04:13:57;25.90;34.10
21801;DHT22;11062;51.164;16.924;2024-01-16T04:16:27;26.30;33.90
21801;DHT22;11062;51.164;16.924;2024-01-16T07:38:15;27.70;32.10
21801;DHT22;11062;51.164;16.924;2024-01-16T07:48:44;27.80;32.00
21801;DHT22;11062;51.164;16.924;2024-01-16T07:51:11;27.80;32.10
21801;DHT22;11062;51.164;16.924;2024-01-16T07:53:40;27.80;32.20
21801;DHT22;11062;51.164;16.924;2024-01-16T07:56:09;27.80;32.10
21801;DHT22;11062;51.164;16.924;2024-01-16T15:46:28;27.60;31.60
21801;DHT22;11062;51.164;16.924;2024-01-16T15:52:43;27.50;31.00
21801;DHT22;11062;51.164;16.924;2024-01-16T15:55:52;27.40;30.60
